createdAt,value
2016-09-21T00:02:27.933Z,75.58
2016-09-21T00:17:32.048Z,76.71
2016-09-21T00:32:29.926Z,76.4
2016-09-21T00:47:34.048Z,77.72
2016-09-21T01:02:27.935Z,77.87
2016-09-21T01:17:27.938Z,78.95
2016-09-21T01:32:27.940Z,80.21
2016-09-21T01:47:27.945Z,81.06
2016-09-21T02:02:34.169Z,80.79
2016-09-21T02:17:30.048Z,79.81
2016-09-21T02:32:27.964Z,80.32
2016-09-21T02:47:32.061Z,80.51
2016-09-21T03:02:30.050Z,81.6
2016-09-21T03:17:30.061Z,81.08
2016-09-21T03:32:30.082Z,80.48
2016-09-21T03:47:30.083Z,81.97
2016-09-21T04:02:27.977Z,82.57
2016-09-21T04:17:30.017Z,82.79
2016-09-21T04:32:27.961Z,83.28
2016-09-21T04:47:27.972Z,83.18
2016-09-21T05:02:27.974Z,84.24
2016-09-21T05:17:30.084Z,84.03
2016-09-21T05:32:30.088Z,84.84
2016-09-21T05:47:30.093Z,84.26
2016-09-21T06:02:27.982Z,84.06
2016-09-21T06:17:27.982Z,83.96
2016-09-21T06:32:27.976Z,83.5
2016-09-21T06:47:30.096Z,83.11
2016-09-21T07:02:30.095Z,83.31
2016-09-21T07:17:29.994Z,82.37
2016-09-21T07:32:27.986Z,81.63
2016-09-21T07:47:27.983Z,80.95
2016-09-21T08:02:27.992Z,80.74
2016-09-21T08:17:27.995Z,79.04
2016-09-21T08:32:27.994Z,78.24
2016-09-21T08:47:30.120Z,76.96
2016-09-21T09:02:28.004Z,74.57
2016-09-21T09:17:28.004Z,70.4
2016-09-21T09:32:32.026Z,65.54
2016-09-21T09:47:34.223Z,63.52
2016-09-21T10:02:38.532Z,65.76
2016-09-21T10:17:32.228Z,62.1
2016-09-21T10:32:28.014Z,59.74
2016-09-21T10:47:30.032Z,60.75
2016-09-21T11:02:28.030Z,59.69
2016-09-21T11:17:28.032Z,56.76
2016-09-21T11:32:28.040Z,56.69
2016-09-21T11:47:28.043Z,57.34
2016-09-21T12:02:28.052Z,57.79
2016-09-21T12:17:30.050Z,57.93
2016-09-21T12:32:28.053Z,56.72
2016-09-21T12:47:30.164Z,57.1
2016-09-21T13:02:34.360Z,59.37
2016-09-21T13:17:28.033Z,58.04
2016-09-21T13:32:30.068Z,57.61
2016-09-21T13:47:34.271Z,57.59
2016-09-21T14:02:30.057Z,58.15
2016-09-21T14:17:34.372Z,58.73
2016-09-21T14:32:30.058Z,57.94
2016-09-21T14:47:28.061Z,57.6
2016-09-21T15:02:32.176Z,59.36
2016-09-21T15:17:36.495Z,59.75
2016-09-21T15:32:32.079Z,60.39
2016-09-21T15:47:28.081Z,61.2
2016-09-21T16:02:30.192Z,64.58
2016-09-21T16:17:30.188Z,65.09
2016-09-21T16:32:28.083Z,65.76
2016-09-21T16:47:30.083Z,67.03
2016-09-21T17:02:52.569Z,68.35
2016-09-21T17:17:43.644Z,69.53
2016-09-21T17:32:43.705Z,70.69
2016-09-21T17:47:43.650Z,70.79
2016-09-21T18:02:47.722Z,71.65
2016-09-21T18:17:45.630Z,71.99
2016-09-21T18:32:45.645Z,72.53
2016-09-21T18:47:43.632Z,74.55
2016-09-21T18:57:44.820Z,74.07
2016-09-21T19:12:30.855Z,75.13
2016-09-21T19:27:32.947Z,76.36
2016-09-21T19:42:37.145Z,76.74
2016-09-21T19:57:32.924Z,77.25
2016-09-21T20:12:35.078Z,78.07
2016-09-21T20:24:31.753Z,78.42
2016-09-21T20:39:22.817Z,78.46
2016-09-21T20:54:22.907Z,79.48
2016-09-21T21:09:26.881Z,79.25
2016-09-21T21:24:26.983Z,79.65
2016-09-21T21:39:24.976Z,81.33
2016-09-21T21:54:20.783Z,81.06
2016-09-21T22:09:22.865Z,80.7
2016-09-21T22:24:22.782Z,81.73
2016-09-21T22:39:24.967Z,82.17
2016-09-21T22:54:27.102Z,82.01
2016-09-21T23:09:20.786Z,81.12
2016-09-21T23:24:20.787Z,81.28
2016-09-21T23:39:20.787Z,82.65
2016-09-21T23:54:22.904Z,83.02
